Terminal Aerodrome Forecast
Issued by NWS Boston, MA

Home | Current Version | Previous Version | Text Only | Print | Product List | Glossary On
Versions: 1 2 3 4 5 6 7 8 9 10 11 12 13 14 15 16 17 18 19 20 21 22 23 24 25 26 27 28 29 30 31 32 33 34 35 36 37 38 39 40 41 42 43 44 45 46 47
000
FTUS41 KBOX 190538
TAFORH
TAF
KORH 190538Z 1906/2006 VRB03KT P6SM FEW150
     FM191600 20011G19KT P6SM SCT200
     FM191900 21013G21KT P6SM BKN030
     FM192300 21011KT 4SM -SHRA OVC020
     FM200100 21011KT 6SM -SHRA OVC015
     FM200300 22011G18KT 5SM BR VCSH OVC015=

USA.gov is the U.S. government's official web portal to all federal, state and local government web resources and services.